Terminal Aerodrome Forecast
Issued by NWS Cleveland, OH

Home | Current Version | Previous Version | Text Only | Print | Product List | Glossary On
Versions: 1 2 3 4 5 6 7 8 9 10 11 12 13 14 15 16 17 18 19 20 21 22 23 24 25 26 27 28
000
FTUS41 KCLE 252000 AAB
TAFCLE
TAF AMD
KCLE 252053Z 2521/2624 21015G25KT P6SM BKN070
     FM260100 20012KT P6SM BKN120
     FM260900 20008KT 5SM BR SCT012 BKN045
     FM261400 20012KT 6SM HZ VCSH SCT025 BKN045
     FM262000 20014KT 6SM -SHRA VCTS OVC045CB=

USA.gov is the U.S. government's official web portal to all federal, state and local government web resources and services.